• Join FlightAware (Why Join?)
  • Login
  • US Flag 
10:29PM EDT


 

Airport Tracker/Info


-or-


 

Live Flight TrackerFlight Track Log ✈ VH-FGS ✈ 25-Aug-2013 ✈ YOLD / OLP - YPAD / ADL

Flight Track Log - Related Links

Times and Time Zones

All times are in EDT time to prevent confusion due to time zone crossing. See the VH-FGS flight status page for this flight to view local times or setup timezone preferences in your user account.

Time Position Orientation Groundspeed Altitude Reporting Facility
EDT Latitude Longitude Course Direction KTS MPH feet Rate Location/Type
03:13PM -30.4850 136.8767 166° South 13,000  Level Aus ATC (Calculated)
03:14PM -30.5656 136.8961 166° South 13,000  Level Aus ATC (Calculated)
03:16PM -30.6813 136.9241 168° South  Level FlightAware Approximate
03:17PM -30.7514 136.9411 168° South  Level FlightAware Approximate
03:17PM -30.7997 136.9528 165° South 13,000  Level Aus ATC (Calculated)
03:18PM -30.8215 136.9581 168° South  Level FlightAware Approximate
03:19PM -30.9154 136.9809 168° South  Level FlightAware Approximate
03:20PM -30.9855 136.9980 168° South  Level FlightAware Approximate
03:20PM -31.0118 137.0044 165° South 13,000  Level Aus ATC (Calculated)
03:21PM -31.0556 137.0151 168° South  Level FlightAware Approximate
03:22PM -31.0913 137.0238 168° South  Level FlightAware Approximate
03:23PM -31.1614 137.0410 168° South  Level FlightAware Approximate
03:24PM -31.2315 137.0581 168° South  Level FlightAware Approximate
03:25PM -31.3016 137.0753 168° South  Level FlightAware Approximate
03:26PM -31.3717 137.0925 168° South  Level FlightAware Approximate
03:27PM -31.4418 137.1098 168° South  Level FlightAware Approximate
03:28PM -31.5119 137.1270 168° South  Level FlightAware Approximate
03:29PM -31.5820 137.1443 168° South  Level FlightAware Approximate
03:29PM -31.5884 137.1459 161° South 13,000  Level Aus ATC (Calculated)
03:30PM -31.6521 137.1617 168° South  Level FlightAware Approximate
03:30PM -31.6805 137.1687 159° South 13,000  Level Aus ATC (Calculated)
03:31PM -31.6748 137.1673 168° South  Level FlightAware Approximate
03:32PM -31.7744 137.1919 168° South  Level FlightAware Approximate
03:32PM -31.7668 137.1900 157° South 13,000  Level Aus ATC (Calculated)
03:32PM -31.8477 137.2101 154° Southeast 13,000  Level Aus ATC (Calculated)
03:33PM -31.9235 137.2290 149° Southeast 13,000 60 Level Aus ATC (Calculated)
03:34PM -31.9272 137.2299 168° South  Level FlightAware Approximate
03:35PM -32.0139 137.2515 168° South  Level FlightAware Approximate
03:36PM -32.0862 137.2695 168° South  Level FlightAware Approximate
03:37PM -32.1584 137.2876 168° South  Level FlightAware Approximate
03:37PM -32.1081 137.3578 168° South 274 315 13,300  Level Aus ATC (RADAR)
03:38PM -32.1854 137.3873 162° South 270 311 13,300  Level Aus ATC (RADAR)
03:39PM -32.2624 137.4190 161° South 271 312 13,300  Level Aus ATC (RADAR)
03:40PM -32.3341 137.4452 163° South 269 310 13,300  Level Aus ATC (RADAR)
03:41PM -32.4109 137.4769 161° South 271 312 13,300  Level Aus ATC (RADAR)
03:42PM -32.4881 137.5075 161° South 272 313 13,300  Level Aus ATC (RADAR)
03:43PM -32.5588 137.5363 161° South 270 311 13,300  Level Aus ATC (RADAR)
03:45PM -32.6596 137.5747 162° South 269 310 13,300  Level Aus ATC (RADAR)
03:46PM -32.7371 137.6046 162° South 271 312 13,300  Level Aus ATC (RADAR)
03:47PM -32.8136 137.6362 161° South 270 311 13,300  Level Aus ATC (RADAR)
03:48PM -32.8841 137.6662 160° South 270 311 13,300  Level Aus ATC (RADAR)
03:49PM -32.9624 137.6938 163° South 271 312 13,300  Level Aus ATC (RADAR)
03:50PM -33.0391 137.7259 161° South 270 311 13,300  Level Aus ATC (RADAR)
03:51PM -33.1095 137.7569 160° South 270 311 13,300  Level Aus ATC (RADAR)
03:52PM -33.1871 137.7876 162° South 273 314 13,300  Level Aus ATC (RADAR)
03:53PM -33.2582 137.8178 160° South 272 313 13,300  Level Aus ATC (RADAR)
03:54PM -33.3354 137.8509 160° South 273 314 13,300  Level Aus ATC (RADAR)
03:55PM -33.4141 137.8802 163° South 275 316 13,300  Level Aus ATC (RADAR)
03:56PM -33.4861 137.9102 161° South 275 316 13,300  Level Aus ATC (RADAR)
03:57PM -33.5632 137.9445 160° South 274 315 13,300  Level Aus ATC (RADAR)
03:58PM -33.6419 137.9754 162° South 275 316 13,300  Level Aus ATC (RADAR)
04:00PM -33.7382 138.0145 161° South 274 315 13,300  Level Aus ATC (RADAR)
04:01PM -33.8157 138.0484 160° South 274 315 13,300  Level Aus ATC (RADAR)
04:02PM -33.8940 138.0800 161° South 274 315 13,300  Level Aus ATC (RADAR)
04:03PM -33.9662 138.1097 161° South 276 318 13,300  Level Aus ATC (RADAR)
04:04PM -34.0439 138.1422 161° South 274 315 13,300  Level Aus ATC (RADAR)
04:05PM -34.1210 138.1752 160° South 273 314 13,300  Level Aus ATC (RADAR)
04:06PM -34.1924 138.2048 161° South 272 313 13,300  Level Aus ATC (RADAR)
04:07PM -34.2694 138.2375 161° South 271 312 13,300  Level Aus ATC (RADAR)
04:08PM -34.3405 138.2672 161° South 271 312 13,300  Level Aus ATC (RADAR)
04:09PM -34.4193 138.2925 165° South 270 311 13,300  Level Aus ATC (RADAR)
04:10PM -34.4987 138.3137 168° South 271 312 13,300 -900 Level Aus ATC (RADAR)
04:11PM -34.5751 138.3347 167° South 283 326 11,500 -1,920 Descending Aus ATC (RADAR)
04:12PM -34.6567 138.3570 167° South 273 314 9,400 -2,040 Descending Aus ATC (RADAR)
04:13PM -34.7284 138.3768 167° South 262 302 7,300 -2,100 Descending Aus ATC (RADAR)
04:15PM -34.8451 138.4094 167° South 248 285 3,800 -2,100 Descending Aus ATC (RADAR)
04:16PM -34.8990 138.4361 158° South 210 242 1,800 -1,260 Descending Aus ATC (RADAR)
04:17PM -34.9224 138.4870 119° Southeast 120 138 1,100 -720 Descending Aus ATC (RADAR)
04:18PM -34.9381 138.5162 123° Southeast 91 105 200 -840 Descending Aus ATC (RADAR)